Time;durP1;ratioP1;P1;durP2;ratioP2;P2;SDS_P1;SDS_P2;PMS_P1;PMS_P2;Temp;Humidity;BMP_temperature;BMP_pressure;BME280_temperature;BME280_humidity;BME280_pressure;Samples;Min_cycle;Max_cycle;Signal;HPM_P1;HPM_P2
2023/04/15 00:00:50;;;;;;;8.60;3.53;;;5.60;99.90;;;;;;5053400;28;20167;-39
2023/04/15 00:03:17;;;;;;;7.70;3.50;;;5.60;99.90;;;;;;5057354;28;20243;-39
2023/04/15 00:05:43;;;;;;;6.83;3.70;;;5.60;99.90;;;;;;5068478;28;20183;-36
2023/04/15 00:08:09;;;;;;;6.20;3.40;;;5.60;99.90;;;;;;5054333;28;20194;-37
2023/04/15 00:10:35;;;;;;;5.63;3.57;;;5.60;99.90;;;;;;5036352;28;20190;-39
2023/04/15 00:13:01;;;;;;;4.90;3.33;;;5.40;99.90;;;;;;5036756;28;20184;-38
2023/04/15 00:15:27;;;;;;;5.17;3.13;;;5.40;99.90;;;;;;5053131;28;20222;-40
2023/04/15 00:17:53;;;;;;;5.07;3.20;;;5.40;99.90;;;;;;5036358;28;20213;-35
2023/04/15 00:20:19;;;;;;;6.70;3.47;;;5.40;99.90;;;;;;5036244;28;20202;-35
2023/04/15 00:22:45;;;;;;;4.87;3.23;;;5.30;99.90;;;;;;5036352;28;20273;-35
2023/04/15 00:25:11;;;;;;;5.90;3.70;;;5.20;99.90;;;;;;5036273;28;20179;-40
2023/04/15 00:27:37;;;;;;;5.87;3.60;;;5.20;99.90;;;;;;5053736;28;20204;-39
2023/04/15 00:30:04;;;;;;;6.07;3.50;;;5.10;99.90;;;;;;5052891;28;20748;-39
2023/04/15 00:32:30;;;;;;;5.40;3.17;;;5.00;99.90;;;;;;5036148;28;20185;-38
2023/04/15 00:34:56;;;;;;;5.17;3.00;;;4.90;99.90;;;;;;5068688;28;20210;-40
2023/04/15 00:37:22;;;;;;;4.13;2.87;;;4.90;99.90;;;;;;5069456;28;20178;-35
2023/04/15 00:39:48;;;;;;;4.50;3.07;;;4.90;99.90;;;;;;5052648;28;20217;-37
2023/04/15 00:42:14;;;;;;;5.90;3.17;;;4.90;99.90;;;;;;5036271;28;20216;-39
2023/04/15 00:44:40;;;;;;;4.43;2.93;;;4.80;99.90;;;;;;5069348;28;20220;-37
2023/04/15 00:47:06;;;;;;;4.73;3.43;;;4.80;99.90;;;;;;5052518;28;20182;-37
2023/04/15 00:49:32;;;;;;;4.97;3.33;;;4.60;99.90;;;;;;5035331;28;20716;-41
2023/04/15 00:51:58;;;;;;;4.20;3.20;;;4.50;99.90;;;;;;5035840;28;20194;-39
2023/04/15 00:54:24;;;;;;;6.40;3.20;;;4.40;99.90;;;;;;5068874;28;20192;-38
2023/04/15 00:56:50;;;;;;;7.10;3.73;;;4.40;99.90;;;;;;5052089;28;20206;-37
2023/04/15 00:59:17;;;;;;;5.57;3.37;;;4.40;99.90;;;;;;5052799;28;20190;-40
2023/04/15 01:01:43;;;;;;;4.67;3.60;;;4.40;99.90;;;;;;5051950;28;20177;-37
2023/04/15 01:04:11;;;;;;;5.97;3.20;;;4.50;99.90;;;;;;5070366;28;20181;-37
2023/04/15 01:06:36;;;;;;;6.00;3.27;;;4.50;99.90;;;;;;5049086;28;20189;-38
2023/04/15 01:09:02;;;;;;;3.97;2.83;;;4.50;99.90;;;;;;5072135;28;20251;-36
2023/04/15 01:11:29;;;;;;;4.03;3.00;;;4.50;99.90;;;;;;5072032;28;20182;-40
2023/04/15 01:13:57;;;;;;;7.27;3.00;;;4.60;99.90;;;;;;5073664;28;20197;-36
2023/04/15 01:16:23;;;;;;;6.20;3.60;;;4.60;99.90;;;;;;5055287;28;20266;-36
2023/04/15 01:18:49;;;;;;;4.37;3.60;;;4.50;99.90;;;;;;5071704;28;20209;-37
2023/04/15 01:21:15;;;;;;;6.37;3.43;;;4.50;99.90;;;;;;5071867;28;20232;-38
2023/04/15 01:23:43;;;;;;;14.13;3.90;;;4.40;99.90;;;;;;5072028;28;20691;-36
2023/04/15 01:26:10;;;;;;;6.83;3.60;;;4.40;99.90;;;;;;5071720;28;20661;-39
2023/04/15 01:28:37;;;;;;;5.67;3.60;;;4.40;99.90;;;;;;5071382;28;20232;-38
2023/04/15 01:31:13;;;;;;;4.37;3.47;;;4.40;99.90;;;;;;5071735;28;20185;-37
2023/04/15 01:33:41;;;;;;;5.87;3.70;;;4.40;99.90;;;;;;5071731;28;20215;-38
2023/04/15 01:36:08;;;;;;;7.70;3.60;;;4.40;99.90;;;;;;5063391;28;20281;-37
2023/04/15 01:38:36;;;;;;;6.23;3.33;;;4.30;99.90;;;;;;5055247;28;20685;-35
2023/04/15 01:41:03;;;;;;;6.43;3.30;;;4.20;99.90;;;;;;5054851;28;20296;-37
2023/04/15 01:43:29;;;;;;;4.63;3.33;;;4.20;99.90;;;;;;5054808;28;20178;-34
2023/04/15 01:45:55;;;;;;;4.80;3.23;;;4.10;99.90;;;;;;5055215;28;20180;-37
2023/04/15 01:48:21;;;;;;;5.93;3.50;;;4.10;99.90;;;;;;5071373;28;20224;-39
2023/04/15 01:50:47;;;;;;;5.17;3.20;;;4.00;99.90;;;;;;5072837;28;20247;-35
2023/04/15 01:53:14;;;;;;;5.03;3.30;;;3.90;99.90;;;;;;5071359;28;20213;-34
2023/04/15 01:55:40;;;;;;;6.23;3.67;;;3.90;99.90;;;;;;5071216;28;20209;-35
2023/04/15 01:58:06;;;;;;;9.10;3.27;;;3.90;99.90;;;;;;5070587;28;20176;-33
2023/04/15 02:00:32;;;;;;;5.80;3.57;;;3.90;99.90;;;;;;5054650;28;20177;-39
2023/04/15 02:02:58;;;;;;;4.97;3.47;;;3.90;99.90;;;;;;5069474;28;20173;-38
2023/04/15 02:05:24;;;;;;;7.27;3.53;;;3.90;99.90;;;;;;5068620;28;20178;-36
2023/04/15 02:07:51;;;;;;;4.30;3.27;;;3.90;99.90;;;;;;5033919;28;20252;-38
2023/04/15 02:10:17;;;;;;;4.30;3.10;;;3.90;99.90;;;;;;5051293;28;20229;-33
2023/04/15 02:12:43;;;;;;;5.80;3.70;;;3.90;99.90;;;;;;5034394;28;20182;-36
2023/04/15 02:15:09;;;;;;;7.47;3.53;;;3.80;99.90;;;;;;5050393;28;20258;-36
2023/04/15 02:17:36;;;;;;;3.73;3.20;;;3.70;99.90;;;;;;5050637;28;20185;-36
2023/04/15 02:20:04;;;;;;;5.60;3.00;;;3.60;99.90;;;;;;5051787;28;20190;-38
2023/04/15 02:22:31;;;;;;;6.13;3.00;;;3.50;99.90;;;;;;5034208;28;20264;-39
2023/04/15 02:24:56;;;;;;;5.33;3.90;;;3.40;99.90;;;;;;5050457;28;20269;-34
2023/04/15 02:27:22;;;;;;;4.63;3.53;;;3.40;99.90;;;;;;5050445;28;20178;-35
2023/04/15 02:29:50;;;;;;;10.70;5.10;;;3.40;99.90;;;;;;5050609;28;20194;-34
2023/04/15 02:32:16;;;;;;;6.57;3.93;;;3.50;99.90;;;;;;5050593;28;20269;-37
2023/04/15 02:34:42;;;;;;;8.33;4.00;;;3.60;99.90;;;;;;5064349;28;20268;-35
2023/04/15 02:37:10;;;;;;;7.97;4.20;;;3.60;99.90;;;;;;5035716;28;20182;-35
2023/04/15 02:39:36;;;;;;;6.03;3.63;;;3.60;99.90;;;;;;5050613;28;20205;-40
2023/04/15 02:42:03;;;;;;;6.20;3.63;;;3.50;99.90;;;;;;5050673;28;20589;-34
2023/04/15 02:44:31;;;;;;;5.93;3.50;;;3.50;99.90;;;;;;5033887;28;20177;-37
2023/04/15 02:46:59;;;;;;;6.27;3.30;;;3.50;99.90;;;;;;5050435;28;20182;-36
2023/04/15 02:49:25;;;;;;;4.27;3.27;;;3.50;99.90;;;;;;5053879;28;20246;-35
2023/04/15 02:51:51;;;;;;;8.17;3.27;;;3.50;99.90;;;;;;5070175;28;20208;-36
2023/04/15 02:54:24;;;;;;;4.80;3.37;;;3.50;99.90;;;;;;5069867;28;20214;-35
2023/04/15 02:56:54;;;;;;;4.70;3.13;;;3.40;99.90;;;;;;5070031;28;20236;-39
2023/04/15 02:59:20;;;;;;;4.67;3.10;;;3.40;99.90;;;;;;5069373;28;20204;-35
2023/04/15 03:01:45;;;;;;;6.70;3.27;;;3.40;99.90;;;;;;5052777;28;20181;-39
2023/04/15 03:04:12;;;;;;;7.70;3.97;;;3.30;99.90;;;;;;5051179;28;20200;-34
2023/04/15 03:06:38;;;;;;;5.70;3.23;;;3.30;99.90;;;;;;5063169;28;20177;-37
2023/04/15 03:09:06;;;;;;;5.73;3.17;;;3.30;99.90;;;;;;5053170;28;20204;-37
2023/04/15 03:11:39;;;;;;;4.80;3.27;;;3.30;99.90;;;;;;5053598;28;20193;-39
2023/04/15 03:14:07;;;;;;;4.53;3.07;;;3.30;99.90;;;;;;5069737;28;20178;-35
2023/04/15 03:16:36;;;;;;;5.23;3.00;;;3.20;99.90;;;;;;5053698;28;20208;-35
2023/04/15 03:19:01;;;;;;;4.50;3.20;;;3.20;99.90;;;;;;5069779;28;20204;-33
2023/04/15 03:21:28;;;;;;;6.03;3.40;;;3.20;99.90;;;;;;5053315;28;20180;-38
2023/04/15 03:23:53;;;;;;;5.93;3.10;;;3.10;99.90;;;;;;5053477;28;20612;-33
2023/04/15 03:26:29;;;;;;;5.70;3.60;;;3.10;99.90;;;;;;5068944;28;20209;-36
2023/04/15 03:28:59;;;;;;;6.83;3.20;;;3.20;99.90;;;;;;5053323;28;20233;-36
2023/04/15 03:31:25;;;;;;;4.77;2.93;;;3.20;99.90;;;;;;5052935;28;20306;-32
2023/04/15 03:33:51;;;;;;;6.93;3.27;;;3.10;99.90;;;;;;5052333;28;20189;-36
2023/04/15 03:36:16;;;;;;;4.27;3.20;;;3.10;99.90;;;;;;5061123;28;20211;-38
2023/04/15 03:38:42;;;;;;;10.30;3.47;;;3.10;99.90;;;;;;5070690;28;20199;-35
2023/04/15 03:41:08;;;;;;;5.50;3.47;;;3.10;99.90;;;;;;5069584;28;20645;-35
2023/04/15 03:43:34;;;;;;;6.13;3.30;;;3.10;99.90;;;;;;5053036;28;20173;-37
2023/04/15 03:46:00;;;;;;;5.13;3.43;;;3.10;99.90;;;;;;5069574;28;20192;-34
2023/04/15 03:48:26;;;;;;;4.53;2.77;;;3.00;99.90;;;;;;5069028;28;20242;-39
2023/04/15 03:50:52;;;;;;;6.50;3.20;;;2.90;99.90;;;;;;5053099;28;20263;-34
2023/04/15 03:53:19;;;;;;;4.90;2.60;;;2.80;99.90;;;;;;5052947;28;20535;-37
2023/04/15 03:55:45;;;;;;;4.10;2.83;;;2.70;99.90;;;;;;5069456;28;20200;-35
2023/04/15 03:58:11;;;;;;;3.93;2.63;;;2.70;99.90;;;;;;5069176;28;20180;-35
2023/04/15 04:00:38;;;;;;;7.87;3.20;;;2.70;99.90;;;;;;5069210;28;20176;-35
2023/04/15 04:03:04;;;;;;;5.97;3.03;;;2.70;99.90;;;;;;5068821;28;20238;-36
2023/04/15 04:05:30;;;;;;;6.53;2.67;;;2.60;99.90;;;;;;5064779;28;20240;-38
2023/04/15 04:07:56;;;;;;;6.53;2.90;;;2.60;99.90;;;;;;5048932;28;20185;-34
2023/04/15 04:10:21;;;;;;;4.50;3.07;;;2.50;99.90;;;;;;5048787;28;20203;-38
2023/04/15 04:12:47;;;;;;;4.10;2.90;;;2.40;99.90;;;;;;5050804;28;20187;-33
2023/04/15 04:15:13;;;;;;;5.50;2.90;;;2.50;99.90;;;;;;5050507;28;20292;-34
2023/04/15 04:17:40;;;;;;;4.33;2.83;;;2.50;99.90;;;;;;5048163;28;20226;-37
2023/04/15 04:20:06;;;;;;;6.13;3.30;;;2.40;99.90;;;;;;5030680;28;20211;-36
2023/04/15 04:22:37;;;;;;;4.90;3.30;;;2.50;99.90;;;;;;5048941;28;20203;-34
2023/04/15 04:25:03;;;;;;;5.47;3.27;;;2.50;99.90;;;;;;5063447;28;20188;-33
2023/04/15 04:27:29;;;;;;;5.10;3.33;;;2.50;99.90;;;;;;5064587;28;20203;-33
2023/04/15 04:29:55;;;;;;;6.60;3.60;;;2.50;99.90;;;;;;5066981;28;20204;-37
2023/04/15 04:32:20;;;;;;;7.23;3.20;;;2.40;99.90;;;;;;5070372;28;20197;-33
2023/04/15 04:34:47;;;;;;;5.17;3.00;;;2.40;99.90;;;;;;5070592;28;20196;-35
2023/04/15 04:37:13;;;;;;;9.00;3.50;;;2.40;99.90;;;;;;5071892;28;20172;-34
2023/04/15 04:39:38;;;;;;;4.60;2.83;;;2.40;99.90;;;;;;5055604;28;20234;-37
2023/04/15 04:42:04;;;;;;;6.53;2.83;;;2.40;99.90;;;;;;5074315;28;20178;-35
2023/04/15 04:44:30;;;;;;;4.83;2.93;;;2.50;99.90;;;;;;5074179;28;20176;-37
2023/04/15 04:46:56;;;;;;;7.47;3.37;;;2.60;99.90;;;;;;5073978;28;20172;-35
2023/04/15 04:49:22;;;;;;;6.10;3.47;;;2.50;99.90;;;;;;5055701;28;20207;-34
2023/04/15 04:51:48;;;;;;;6.00;2.80;;;2.50;99.90;;;;;;5072408;28;20199;-35
2023/04/15 04:54:13;;;;;;;7.03;3.30;;;2.60;99.90;;;;;;5072142;28;20307;-36
2023/04/15 04:56:39;;;;;;;5.63;3.10;;;2.60;99.90;;;;;;5063932;28;20216;-33
2023/04/15 04:59:06;;;;;;;4.77;3.03;;;2.60;99.90;;;;;;5072115;28;20211;-32
2023/04/15 05:01:32;;;;;;;6.10;3.10;;;2.60;99.90;;;;;;5072017;28;20168;-38
2023/04/15 05:03:59;;;;;;;7.60;4.33;;;2.60;99.90;;;;;;5072174;28;20176;-37
2023/04/15 05:06:25;;;;;;;7.70;5.57;;;2.40;99.90;;;;;;5072615;28;20188;-37
2023/04/15 05:08:50;;;;;;;7.23;4.63;;;2.40;99.90;;;;;;5070997;28;20728;-36
2023/04/15 05:11:16;;;;;;;4.37;2.90;;;2.30;99.90;;;;;;5071996;28;20188;-37
2023/04/15 05:13:42;;;;;;;3.97;2.90;;;2.30;99.90;;;;;;5055398;28;20652;-35
2023/04/15 05:16:08;;;;;;;4.93;3.37;;;2.30;99.90;;;;;;5072084;28;20209;-37
2023/04/15 05:18:34;;;;;;;5.00;3.23;;;2.30;99.90;;;;;;5071708;28;20210;-34
2023/04/15 05:20:59;;;;;;;4.27;3.17;;;2.30;99.90;;;;;;5073353;28;20270;-32
2023/04/15 05:23:26;;;;;;;4.50;2.97;;;2.50;99.90;;;;;;5071716;28;20172;-34
2023/04/15 05:25:51;;;;;;;4.33;3.10;;;2.60;99.90;;;;;;5068831;28;20199;-36
2023/04/15 05:28:17;;;;;;;5.57;3.67;;;2.70;99.90;;;;;;5052113;28;20185;-34
2023/04/15 05:30:43;;;;;;;4.03;2.90;;;2.70;99.90;;;;;;5034951;28;20185;-33
2023/04/15 05:33:09;;;;;;;5.87;3.63;;;2.80;99.90;;;;;;5051740;28;20182;-34
2023/04/15 05:35:35;;;;;;;4.83;3.10;;;2.90;99.90;;;;;;5051744;28;20212;-37
2023/04/15 05:38:01;;;;;;;6.87;3.27;;;2.90;99.90;;;;;;5052574;28;20209;-37
2023/04/15 05:40:27;;;;;;;5.00;3.13;;;3.00;99.90;;;;;;5051512;28;20205;-34
2023/04/15 05:42:52;;;;;;;12.77;7.17;;;3.10;99.90;;;;;;5051799;28;20244;-35
2023/04/15 05:45:19;;;;;;;10.70;6.60;;;3.20;99.90;;;;;;5035041;28;20250;-35
2023/04/15 05:47:44;;;;;;;8.80;6.13;;;3.30;99.90;;;;;;5066778;28;20180;-36
2023/04/15 05:50:10;;;;;;;15.30;8.47;;;3.30;99.90;;;;;;5070895;28;20219;-35
2023/04/15 05:52:36;;;;;;;14.90;5.97;;;3.40;99.90;;;;;;5071057;28;20192;-32
2023/04/15 05:55:02;;;;;;;7.60;5.23;;;3.40;99.90;;;;;;5070737;28;20238;-37
2023/04/15 05:57:27;;;;;;;7.17;4.47;;;3.40;99.90;;;;;;5063661;28;20173;-38
2023/04/15 05:59:54;;;;;;;9.03;5.40;;;3.50;99.90;;;;;;5071525;28;20205;-35
2023/04/15 06:02:20;;;;;;;6.57;4.60;;;3.50;99.90;;;;;;5071225;28;20192;-36
2023/04/15 06:04:46;;;;;;;5.43;3.50;;;3.50;99.90;;;;;;5054530;28;20638;-36
2023/04/15 06:07:12;;;;;;;6.10;3.63;;;3.50;99.90;;;;;;5070987;28;20174;-37
2023/04/15 06:09:38;;;;;;;5.53;4.30;;;3.50;99.90;;;;;;5071024;28;20231;-34
2023/04/15 06:12:05;;;;;;;8.70;4.47;;;3.60;99.90;;;;;;5071073;28;20181;-37
2023/04/15 06:14:31;;;;;;;7.40;3.63;;;3.60;99.90;;;;;;5054474;28;20185;-36
2023/04/15 06:16:57;;;;;;;11.37;4.03;;;3.60;99.90;;;;;;5054379;28;20303;-35
2023/04/15 06:19:23;;;;;;;7.00;4.30;;;3.60;99.90;;;;;;5072021;28;20197;-36
2023/04/15 06:21:49;;;;;;;7.73;4.00;;;3.70;99.90;;;;;;5064876;28;20182;-35
2023/04/15 06:24:15;;;;;;;6.97;3.53;;;3.70;99.90;;;;;;5054537;28;20196;-36
2023/04/15 06:26:40;;;;;;;6.23;3.57;;;3.80;99.90;;;;;;5064456;28;20186;-36
2023/04/15 06:29:06;;;;;;;4.77;3.57;;;3.90;99.90;;;;;;5033906;28;20210;-38
2023/04/15 06:31:32;;;;;;;7.10;3.77;;;3.90;99.90;;;;;;5050754;28;20170;-36
2023/04/15 06:33:57;;;;;;;6.40;3.60;;;3.90;99.90;;;;;;5050681;28;20204;-35
2023/04/15 06:36:23;;;;;;;6.67;3.80;;;3.90;99.90;;;;;;5052078;28;20272;-37
2023/04/15 06:38:49;;;;;;;6.00;4.00;;;4.00;99.90;;;;;;5051581;28;20205;-40
2023/04/15 06:41:15;;;;;;;6.23;3.43;;;4.00;99.90;;;;;;5051158;28;20185;-39
2023/04/15 06:43:41;;;;;;;7.07;3.70;;;4.00;99.90;;;;;;5050381;28;20181;-39
2023/04/15 06:46:07;;;;;;;7.10;3.90;;;4.00;99.90;;;;;;5050412;28;20186;-38
2023/04/15 06:48:32;;;;;;;8.57;3.83;;;4.10;99.90;;;;;;5049939;28;20243;-38
2023/04/15 06:50:58;;;;;;;7.40;3.93;;;4.10;99.90;;;;;;5050400;28;20181;-39
2023/04/15 06:53:26;;;;;;;4.47;3.27;;;4.20;99.90;;;;;;5052131;28;20186;-38
2023/04/15 06:55:52;;;;;;;6.10;3.00;;;4.30;99.90;;;;;;5065796;28;20209;-40
2023/04/15 06:58:18;;;;;;;6.83;3.30;;;4.40;99.90;;;;;;5050599;28;20232;-40
2023/04/15 07:00:45;;;;;;;5.90;3.13;;;4.50;99.90;;;;;;5033242;28;20173;-40
2023/04/15 07:03:12;;;;;;;5.83;3.67;;;4.70;99.90;;;;;;5033467;28;20173;-40
2023/04/15 07:05:38;;;;;;;6.67;3.30;;;4.80;99.90;;;;;;5051393;28;20204;-39
2023/04/15 07:08:05;;;;;;;4.57;3.17;;;5.00;99.90;;;;;;5051014;28;20547;-40
2023/04/15 07:10:32;;;;;;;5.50;3.83;;;5.20;99.90;;;;;;5050077;28;20181;-40
2023/04/15 07:12:58;;;;;;;6.57;3.60;;;5.30;99.90;;;;;;5050150;28;20185;-40
2023/04/15 07:15:24;;;;;;;5.93;4.03;;;5.50;99.90;;;;;;5049942;28;20213;-41
2023/04/15 07:17:50;;;;;;;7.17;4.03;;;5.60;99.90;;;;;;5050912;28;20197;-39
2023/04/15 07:20:16;;;;;;;8.33;4.40;;;5.70;99.90;;;;;;5051129;28;20218;-40
2023/04/15 07:22:42;;;;;;;6.87;4.93;;;5.80;99.90;;;;;;5050489;28;20179;-41
2023/04/15 07:25:08;;;;;;;7.20;4.83;;;5.90;99.90;;;;;;5059027;28;20192;-40
2023/04/15 07:27:34;;;;;;;8.10;4.80;;;5.90;99.90;;;;;;5057435;28;20232;-41
2023/04/15 07:30:00;;;;;;;8.20;4.50;;;6.10;99.90;;;;;;5050993;28;20231;-40
2023/04/15 07:32:26;;;;;;;6.23;4.17;;;6.30;99.90;;;;;;5051035;28;20179;-40
2023/04/15 07:34:52;;;;;;;8.60;4.60;;;6.40;99.90;;;;;;5033035;28;20191;-40
2023/04/15 07:37:18;;;;;;;6.77;3.97;;;6.60;99.90;;;;;;5049663;28;20214;-40
2023/04/15 07:39:44;;;;;;;7.00;4.07;;;6.70;99.90;;;;;;5051130;28;20214;-39
2023/04/15 07:42:10;;;;;;;6.07;3.87;;;6.80;99.90;;;;;;5049874;28;20184;-35
2023/04/15 07:44:36;;;;;;;6.13;3.83;;;6.80;99.90;;;;;;5049630;28;20171;-37
2023/04/15 07:47:03;;;;;;;8.07;4.07;;;6.90;99.90;;;;;;5050859;28;20267;-37
2023/04/15 07:49:28;;;;;;;6.97;3.93;;;7.00;99.90;;;;;;5050561;28;20215;-35
2023/04/15 07:51:56;;;;;;;6.73;3.83;;;7.00;99.90;;;;;;5032917;28;20184;-37
2023/04/15 07:54:22;;;;;;;8.87;4.07;;;7.10;99.90;;;;;;5053616;28;20184;-37
2023/04/15 07:56:47;;;;;;;6.17;4.03;;;7.20;99.90;;;;;;5063766;28;20210;-37
2023/04/15 07:59:16;;;;;;;5.13;3.27;;;7.30;99.90;;;;;;5050189;28;20267;-38
2023/04/15 08:01:42;;;;;;;4.77;3.60;;;7.40;99.90;;;;;;5049646;28;20204;-35
2023/04/15 08:04:09;;;;;;;8.10;3.80;;;7.40;99.90;;;;;;5049385;28;20204;-38
2023/04/15 08:06:35;;;;;;;7.00;3.93;;;7.40;99.90;;;;;;5049390;28;20258;-35
2023/04/15 08:09:01;;;;;;;5.53;3.10;;;7.50;99.90;;;;;;5049128;28;20286;-35
2023/04/15 08:11:27;;;;;;;8.23;4.27;;;7.50;99.90;;;;;;5050861;28;20260;-38
2023/04/15 08:13:53;;;;;;;5.43;3.57;;;7.60;99.90;;;;;;5054342;28;20185;-40
2023/04/15 08:16:21;;;;;;;5.77;3.77;;;7.70;99.90;;;;;;5054748;28;20220;-39
2023/04/15 08:18:48;;;;;;;6.13;3.90;;;7.90;99.90;;;;;;5052853;28;20189;-41
2023/04/15 08:21:14;;;;;;;6.57;3.90;;;8.00;99.90;;;;;;5053244;28;20191;-40
2023/04/15 08:23:40;;;;;;;6.40;3.90;;;8.10;99.90;;;;;;5054348;28;20177;-41
2023/04/15 08:26:07;;;;;;;6.00;3.53;;;8.20;99.90;;;;;;5070439;28;20199;-38
2023/04/15 08:28:33;;;;;;;4.43;3.50;;;8.30;99.90;;;;;;5073951;28;20197;-41
2023/04/15 08:30:59;;;;;;;3.87;3.10;;;8.40;99.90;;;;;;5074457;28;20173;-41
2023/04/15 08:33:25;;;;;;;7.47;3.63;;;8.40;99.90;;;;;;5073071;28;20192;-40
2023/04/15 08:35:50;;;;;;;6.33;3.73;;;8.40;99.90;;;;;;5072696;28;20303;-33
2023/04/15 08:38:17;;;;;;;5.67;4.03;;;8.40;99.90;;;;;;5073926;28;20201;-35
2023/04/15 08:40:44;;;;;;;8.83;4.23;;;8.60;99.90;;;;;;5072571;28;20181;-37
2023/04/15 08:43:25;;;;;;;5.87;4.30;;;8.70;99.90;;;;;;5074350;28;20188;-37
2023/04/15 08:45:52;;;;;;;6.23;4.30;;;8.80;99.90;;;;;;5074008;28;20234;-39
2023/04/15 08:48:18;;;;;;;8.40;4.27;;;9.00;99.90;;;;;;5055645;28;20189;-35
2023/04/15 08:50:46;;;;;;;6.87;3.67;;;9.00;99.90;;;;;;5055853;28;20193;-34
2023/04/15 08:53:12;;;;;;;5.43;3.07;;;9.10;99.90;;;;;;5072445;28;20267;-36
2023/04/15 08:55:44;;;;;;;8.70;4.30;;;9.10;99.90;;;;;;5070391;28;20209;-39
2023/04/15 08:58:14;;;;;;;5.53;3.57;;;9.20;99.90;;;;;;5055270;28;20303;-38
2023/04/15 09:00:40;;;;;;;6.77;3.93;;;9.30;99.90;;;;;;5053816;28;20182;-35
2023/04/15 09:03:08;;;;;;;7.93;3.83;;;9.30;99.90;;;;;;5053748;28;20244;-38
2023/04/15 09:05:36;;;;;;;7.93;3.50;;;9.40;99.90;;;;;;5053489;28;20181;-38
2023/04/15 09:08:02;;;;;;;5.40;3.80;;;9.60;99.90;;;;;;5035522;28;20265;-37
2023/04/15 09:10:28;;;;;;;4.90;3.30;;;9.70;99.90;;;;;;5035343;28;20198;-38
2023/04/15 09:12:55;;;;;;;9.07;3.97;;;9.70;99.90;;;;;;5052307;28;20185;-41
2023/04/15 09:15:23;;;;;;;8.00;3.20;;;9.80;99.90;;;;;;5051972;28;20210;-40
2023/04/15 09:17:49;;;;;;;6.03;3.37;;;9.90;99.90;;;;;;5052084;28;20193;-40
2023/04/15 09:20:17;;;;;;;5.83;3.50;;;9.90;99.90;;;;;;5053091;28;20194;-41
2023/04/15 09:22:45;;;;;;;5.73;2.80;;;10.00;99.90;;;;;;5053222;28;20189;-41
2023/04/15 09:25:28;;;;;;;5.77;3.37;;;10.20;99.90;;;;;;5063188;28;20181;-41
2023/04/15 09:27:59;;;;;;;5.43;3.80;;;10.40;99.90;;;;;;5055708;28;20166;-40
2023/04/15 09:30:27;;;;;;;7.53;3.90;;;10.50;99.90;;;;;;5051940;28;20201;-41
2023/04/15 09:32:56;;;;;;;7.20;3.70;;;10.60;99.90;;;;;;5053144;28;20182;-41
2023/04/15 09:35:23;;;;;;;5.87;3.50;;;10.70;99.90;;;;;;5035055;28;20214;-41
2023/04/15 09:37:50;;;;;;;5.17;3.20;;;10.80;99.90;;;;;;5052476;28;20174;-38
2023/04/15 09:40:37;;;;;;;6.07;3.50;;;10.80;99.90;;;;;;5051046;28;20217;-41
2023/04/15 09:43:07;;;;;;;7.40;3.20;;;11.00;99.90;;;;;;5051645;28;20170;-40
2023/04/15 09:45:35;;;;;;;6.90;3.40;;;11.10;99.90;;;;;;5051693;28;20186;-41
2023/04/15 09:48:22;;;;;;;7.23;2.93;;;11.20;99.90;;;;;;5052713;28;20179;-41
2023/04/15 09:50:49;;;;;;;8.40;3.50;;;11.30;99.90;;;;;;5052682;28;20178;-41
2023/04/15 09:53:19;;;;;;;5.50;3.37;;;11.50;99.90;;;;;;5051432;28;20262;-40
2023/04/15 09:55:49;;;;;;;7.30;3.47;;;11.70;99.90;;;;;;5066760;28;20222;-41
2023/04/15 09:58:19;;;;;;;6.67;3.00;;;11.90;99.90;;;;;;5051806;28;20187;-41
2023/04/15 10:00:48;;;;;;;7.00;3.20;;;11.90;99.90;;;;;;5052669;28;20293;-37
2023/04/15 10:03:21;;;;;;;11.17;3.40;;;12.20;99.90;;;;;;5051387;28;20180;-39
2023/04/15 10:05:51;;;;;;;7.87;2.97;;;12.40;99.90;;;;;;5052578;28;20194;-40
2023/04/15 10:08:20;;;;;;;6.30;3.00;;;12.60;99.90;;;;;;5052245;28;20185;-40
2023/04/15 10:10:47;;;;;;;5.03;2.67;;;12.90;99.90;;;;;;5052104;28;20181;-39
2023/04/15 10:13:24;;;;;;;5.73;2.47;;;12.90;99.90;;;;;;5052363;28;20177;-38
2023/04/15 10:15:59;;;;;;;5.90;2.70;;;12.90;99.90;;;;;;5052360;28;20216;-39
2023/04/15 10:18:26;;;;;;;4.83;2.50;;;13.00;99.90;;;;;;5050792;28;20221;-39
2023/04/15 10:20:53;;;;;;;4.60;2.30;;;13.00;99.90;;;;;;5052094;28;20181;-38
2023/04/15 10:23:20;;;;;;;4.87;2.30;;;13.10;99.90;;;;;;5050589;28;20189;-41
2023/04/15 10:25:47;;;;;;;5.20;2.10;;;13.10;99.90;;;;;;5066532;28;20268;-42
2023/04/15 10:28:15;;;;;;;4.50;2.60;;;13.30;99.90;;;;;;5051817;28;20271;-41
2023/04/15 10:30:42;;;;;;;5.93;2.93;;;13.40;99.90;;;;;;5050833;28;20582;-41
2023/04/15 10:33:09;;;;;;;3.43;2.13;;;13.50;99.90;;;;;;5052012;28;20184;-40
2023/04/15 10:35:36;;;;;;;9.20;4.73;;;13.70;99.90;;;;;;5033433;28;20205;-38
2023/04/15 10:38:02;;;;;;;5.83;2.40;;;13.70;99.90;;;;;;5051629;28;20186;-39
2023/04/15 10:40:32;;;;;;;4.17;1.90;;;13.70;99.90;;;;;;5050319;28;20213;-41
2023/04/15 10:43:02;;;;;;;12.57;7.73;;;13.80;99.90;;;;;;5050487;28;20323;-39
2023/04/15 10:45:35;;;;;;;5.33;2.50;;;14.00;99.90;;;;;;5051555;28;20178;-39
2023/04/15 10:48:03;;;;;;;3.50;1.90;;;14.00;99.90;;;;;;5051414;28;20192;-39
2023/04/15 10:50:31;;;;;;;3.57;1.90;;;14.10;99.90;;;;;;5050553;28;20185;-39
2023/04/15 10:52:57;;;;;;;5.13;2.20;;;14.20;99.90;;;;;;5033957;28;20189;-38
2023/04/15 10:55:32;;;;;;;4.07;1.93;;;14.40;99.90;;;;;;5061713;28;20216;-39
2023/04/15 10:58:02;;;;;;;5.13;1.80;;;14.50;99.90;;;;;;5053444;28;20206;-41
2023/04/15 11:00:34;;;;;;;4.97;1.77;;;14.70;99.90;;;;;;5049863;28;20233;-39
2023/04/15 11:03:07;;;;;;;5.23;2.20;;;14.70;99.90;;;;;;5051583;28;20178;-38
2023/04/15 11:05:53;;;;;;;4.10;1.90;;;14.50;99.90;;;;;;5049988;28;20182;-39
2023/04/15 11:08:19;;;;;;;7.77;2.07;;;14.60;99.90;;;;;;5050915;28;20228;-39
2023/04/15 11:10:45;;;;;;;5.70;2.00;;;14.50;99.90;;;;;;5050014;28;20276;-39
2023/04/15 11:13:10;;;;;;;4.80;2.00;;;14.40;99.90;;;;;;5049977;28;20256;-39
2023/04/15 11:15:43;;;;;;;3.50;1.80;;;14.20;99.90;;;;;;5051173;28;20218;-40
2023/04/15 11:18:18;;;;;;;3.03;1.53;;;14.10;99.90;;;;;;5050969;28;20174;-38
2023/04/15 11:20:50;;;;;;;2.93;1.77;;;14.10;99.90;;;;;;5051101;28;20172;-37
2023/04/15 11:23:30;;;;;;;2.90;1.50;;;14.00;99.90;;;;;;5049876;28;20189;-40
2023/04/15 11:25:57;;;;;;;3.00;1.77;;;14.00;99.90;;;;;;5067320;28;20185;-39
2023/04/15 11:28:30;;;;;;;3.17;1.53;;;13.90;99.90;;;;;;5050754;28;20192;-37
2023/04/15 11:30:57;;;;;;;3.03;1.40;;;13.90;99.90;;;;;;5050953;28;20173;-38
2023/04/15 11:33:23;;;;;;;2.10;1.60;;;13.90;99.90;;;;;;5049690;28;20178;-39
2023/04/15 11:35:54;;;;;;;4.80;1.80;;;13.80;99.90;;;;;;5051007;28;20204;-40
2023/04/15 11:38:21;;;;;;;2.70;1.37;;;13.80;99.90;;;;;;5049424;28;20177;-40
2023/04/15 11:40:47;;;;;;;3.23;1.83;;;13.70;99.90;;;;;;5050810;28;20193;-40
2023/04/15 11:43:19;;;;;;;3.70;1.70;;;13.70;99.90;;;;;;5050929;28;20189;-35
2023/04/15 11:45:51;;;;;;;4.07;1.70;;;13.60;99.90;;;;;;5049756;28;20182;-37
2023/04/15 11:48:18;;;;;;;5.47;1.67;;;13.90;99.90;;;;;;5054151;28;20193;-38
2023/04/15 11:50:44;;;;;;;4.93;1.93;;;14.10;99.90;;;;;;5055078;28;20176;-38
2023/04/15 11:53:12;;;;;;;2.13;1.40;;;14.30;99.90;;;;;;5055131;28;20204;-40
2023/04/15 11:55:49;;;;;;;2.97;1.43;;;14.40;99.90;;;;;;5069013;28;20261;-39
2023/04/15 11:58:21;;;;;;;3.83;1.63;;;14.30;99.90;;;;;;5054296;28;20190;-39
2023/04/15 12:00:56;;;;;;;3.70;1.90;;;14.00;99.90;;;;;;5053609;28;20178;-39
2023/04/15 12:03:24;;;;;;;5.53;1.83;;;13.90;99.90;;;;;;5037051;28;20173;-42
2023/04/15 12:06:15;;;;;;;6.93;2.10;;;13.70;99.90;;;;;;5054948;28;20185;-41
2023/04/15 12:09:12;;;;;;;2.97;2.10;;;13.60;99.90;;;;;;5054365;28;20233;-41
2023/04/15 12:11:39;;;;;;;4.07;2.37;;;13.60;99.90;;;;;;5055006;28;20216;-41
2023/04/15 12:14:25;;;;;;;1.67;1.50;;;13.50;99.90;;;;;;5037107;28;20205;-41
2023/04/15 12:17:03;;;;;;;4.73;1.80;;;13.80;99.90;;;;;;5053051;28;20213;-40
2023/04/15 12:19:34;;;;;;;3.83;1.60;;;14.40;99.90;;;;;;5052961;28;20242;-39
2023/04/15 12:22:03;;;;;;;3.27;1.50;;;14.90;99.90;;;;;;5036720;28;20188;-41
2023/04/15 12:24:33;;;;;;;3.53;1.50;;;15.00;99.90;;;;;;5058378;28;20196;-41
2023/04/15 12:27:03;;;;;;;2.97;1.80;;;15.30;99.90;;;;;;5065637;28;20174;-42
2023/04/15 12:29:29;;;;;;;4.77;1.83;;;15.50;99.90;;;;;;5054150;28;20212;-42
2023/04/15 12:31:57;;;;;;;40.27;25.07;;;15.50;99.90;;;;;;5053148;28;20178;-41
2023/04/15 12:34:30;;;;;;;3.90;2.13;;;16.00;99.90;;;;;;5053019;28;20257;-40
2023/04/15 12:36:57;;;;;;;2.80;1.80;;;16.20;99.90;;;;;;5036540;28;20210;-42
2023/04/15 12:39:25;;;;;;;3.37;1.70;;;16.10;99.90;;;;;;5053882;28;20212;-41
2023/04/15 12:41:51;;;;;;;2.33;1.73;;;16.30;99.90;;;;;;5054168;28;20261;-41
2023/04/15 12:44:17;;;;;;;6.10;2.10;;;15.90;99.90;;;;;;5052766;28;20197;-41
2023/04/15 12:46:43;;;;;;;3.90;1.90;;;16.00;99.90;;;;;;5054474;28;20178;-40
2023/04/15 12:49:08;;;;;;;5.87;2.00;;;15.90;99.90;;;;;;5053549;28;20194;-39
2023/04/15 12:51:34;;;;;;;4.07;1.90;;;15.70;99.90;;;;;;5054154;28;20182;-39
2023/04/15 12:54:00;;;;;;;2.87;2.00;;;15.70;99.90;;;;;;5054132;28;20261;-41